sensor_id;sensor_type;location;lat;lon;timestamp;temperature;humidity
64918;HTU21D;52176;44.858;38.372;2022-12-07T00:01:30;-0.25;85.64
64918;HTU21D;52176;44.858;38.372;2022-12-07T00:03:57;-0.25;85.20
64918;HTU21D;52176;44.858;38.372;2022-12-07T00:06:26;-0.23;85.11
64918;HTU21D;52176;44.858;38.372;2022-12-07T00:08:52;-0.22;85.15
64918;HTU21D;52176;44.858;38.372;2022-12-07T00:11:19;-0.21;85.03
64918;HTU21D;52176;44.858;38.372;2022-12-07T00:13:45;-0.20;85.58
64918;HTU21D;52176;44.858;38.372;2022-12-07T00:16:12;-0.20;85.44
64918;HTU21D;52176;44.858;38.372;2022-12-07T00:18:38;-0.19;85.79
64918;HTU21D;52176;44.858;38.372;2022-12-07T00:21:12;-0.17;85.62
64918;HTU21D;52176;44.858;38.372;2022-12-07T00:23:38;-0.16;85.39
64918;HTU21D;52176;44.858;38.372;2022-12-07T00:26:06;-0.14;85.53
64918;HTU21D;52176;44.858;38.372;2022-12-07T00:28:32;-0.12;85.81
64918;HTU21D;52176;44.858;38.372;2022-12-07T00:30:59;-0.13;86.04
64918;HTU21D;52176;44.858;38.372;2022-12-07T00:33:25;-0.15;85.97
64918;HTU21D;52176;44.858;38.372;2022-12-07T00:35:56;-0.14;86.17
64918;HTU21D;52176;44.858;38.372;2022-12-07T00:38:22;-0.14;85.98
64918;HTU21D;52176;44.858;38.372;2022-12-07T00:40:54;-0.13;85.73
64918;HTU21D;52176;44.858;38.372;2022-12-07T00:43:21;-0.12;85.71
64918;HTU21D;52176;44.858;38.372;2022-12-07T00:45:46;-0.12;85.66
64918;HTU21D;52176;44.858;38.372;2022-12-07T00:48:12;-0.10;85.82
64918;HTU21D;52176;44.858;38.372;2022-12-07T00:50:38;-0.12;86.26
64918;HTU21D;52176;44.858;38.372;2022-12-07T00:53:03;-0.12;86.20
64918;HTU21D;52176;44.858;38.372;2022-12-07T00:55:32;-0.13;86.32
64918;HTU21D;52176;44.858;38.372;2022-12-07T00:57:58;-0.13;86.20
64918;HTU21D;52176;44.858;38.372;2022-12-07T01:00:24;-0.14;86.56
64918;HTU21D;52176;44.858;38.372;2022-12-07T01:02:50;-0.16;86.82
64918;HTU21D;52176;44.858;38.372;2022-12-07T01:05:15;-0.16;86.54
64918;HTU21D;52176;44.858;38.372;2022-12-07T01:07:41;-0.16;86.46
64918;HTU21D;52176;44.858;38.372;2022-12-07T01:10:07;-0.17;86.62
64918;HTU21D;52176;44.858;38.372;2022-12-07T01:12:33;-0.17;86.38
64918;HTU21D;52176;44.858;38.372;2022-12-07T01:14:59;-0.19;86.44
64918;HTU21D;52176;44.858;38.372;2022-12-07T01:17:24;-0.17;86.32
64918;HTU21D;52176;44.858;38.372;2022-12-07T01:19:50;-0.16;86.59
64918;HTU21D;52176;44.858;38.372;2022-12-07T01:22:16;-0.17;86.38
64918;HTU21D;52176;44.858;38.372;2022-12-07T01:24:42;-0.16;86.25
64918;HTU21D;52176;44.858;38.372;2022-12-07T01:27:07;-0.16;86.22
64918;HTU21D;52176;44.858;38.372;2022-12-07T01:29:33;-0.16;86.17
64918;HTU21D;52176;44.858;38.372;2022-12-07T01:31:59;-0.16;86.12
64918;HTU21D;52176;44.858;38.372;2022-12-07T01:34:25;-0.15;86.45
64918;HTU21D;52176;44.858;38.372;2022-12-07T01:36:51;-0.16;86.70
64918;HTU21D;52176;44.858;38.372;2022-12-07T01:39:16;-0.17;86.45
64918;HTU21D;52176;44.858;38.372;2022-12-07T01:41:42;-0.15;86.30
64918;HTU21D;52176;44.858;38.372;2022-12-07T01:46:38;-0.14;86.64
64918;HTU21D;52176;44.858;38.372;2022-12-07T01:49:05;-0.15;86.66
64918;HTU21D;52176;44.858;38.372;2022-12-07T01:51:31;-0.14;86.65
64918;HTU21D;52176;44.858;38.372;2022-12-07T01:53:57;-0.14;86.81
64918;HTU21D;52176;44.858;38.372;2022-12-07T01:56:25;-0.13;86.64
64918;HTU21D;52176;44.858;38.372;2022-12-07T01:58:52;-0.13;86.54
64918;HTU21D;52176;44.858;38.372;2022-12-07T02:01:19;-0.11;86.43
64918;HTU21D;52176;44.858;38.372;2022-12-07T02:03:45;-0.11;86.53
64918;HTU21D;52176;44.858;38.372;2022-12-07T02:06:13;-0.11;86.48
64918;HTU21D;52176;44.858;38.372;2022-12-07T02:08:41;-0.12;86.65
64918;HTU21D;52176;44.858;38.372;2022-12-07T02:11:07;-0.12;86.67
64918;HTU21D;52176;44.858;38.372;2022-12-07T02:13:34;-0.12;86.61
64918;HTU21D;52176;44.858;38.372;2022-12-07T02:29:06;-0.10;87.17
64918;HTU21D;52176;44.858;38.372;2022-12-07T02:31:36;-0.10;87.41
64918;HTU21D;52176;44.858;38.372;2022-12-07T02:36:55;-0.12;87.54
64918;HTU21D;52176;44.858;38.372;2022-12-07T02:39:25;-0.13;87.52
64918;HTU21D;52176;44.858;38.372;2022-12-07T02:42:00;-0.13;87.41
64918;HTU21D;52176;44.858;38.372;2022-12-07T02:44:27;-0.13;87.50
64918;HTU21D;52176;44.858;38.372;2022-12-07T02:46:55;-0.12;87.67
64918;HTU21D;52176;44.858;38.372;2022-12-07T02:49:22;-0.13;87.79
64918;HTU21D;52176;44.858;38.372;2022-12-07T02:51:49;-0.14;87.55
64918;HTU21D;52176;44.858;38.372;2022-12-07T02:54:16;-0.13;87.94
64918;HTU21D;52176;44.858;38.372;2022-12-07T02:59:22;-0.12;87.77
64918;HTU21D;52176;44.858;38.372;2022-12-07T03:01:57;-0.11;88.22
64918;HTU21D;52176;44.858;38.372;2022-12-07T03:07:05;-0.11;87.91
64918;HTU21D;52176;44.858;38.372;2022-12-07T03:12:20;-0.10;87.93
64918;HTU21D;52176;44.858;38.372;2022-12-07T03:15:07;-0.10;87.98
64918;HTU21D;52176;44.858;38.372;2022-12-07T03:17:35;-0.10;88.57
64918;HTU21D;52176;44.858;38.372;2022-12-07T03:20:02;-0.10;88.81
64918;HTU21D;52176;44.858;38.372;2022-12-07T03:22:30;-0.11;88.58
64918;HTU21D;52176;44.858;38.372;2022-12-07T03:24:58;-0.11;88.31
64918;HTU21D;52176;44.858;38.372;2022-12-07T03:29:52;-0.10;88.45
64918;HTU21D;52176;44.858;38.372;2022-12-07T03:32:21;-0.12;88.07
64918;HTU21D;52176;44.858;38.372;2022-12-07T03:37:28;-0.11;88.32
64918;HTU21D;52176;44.858;38.372;2022-12-07T03:40:02;-0.11;88.44
64918;HTU21D;52176;44.858;38.372;2022-12-07T03:42:29;-0.11;88.18
64918;HTU21D;52176;44.858;38.372;2022-12-07T03:44:55;-0.09;88.28
64918;HTU21D;52176;44.858;38.372;2022-12-07T03:57:30;-0.11;88.73
64918;HTU21D;52176;44.858;38.372;2022-12-07T03:59:58;-0.12;88.51
64918;HTU21D;52176;44.858;38.372;2022-12-07T04:02:26;-0.12;88.28
64918;HTU21D;52176;44.858;38.372;2022-12-07T04:04:52;-0.12;88.26
64918;HTU21D;52176;44.858;38.372;2022-12-07T04:07:18;-0.11;88.24
64918;HTU21D;52176;44.858;38.372;2022-12-07T04:09:44;-0.10;88.15
64918;HTU21D;52176;44.858;38.372;2022-12-07T04:12:10;-0.10;88.08
64918;HTU21D;52176;44.858;38.372;2022-12-07T04:14:36;-0.10;87.99
64918;HTU21D;52176;44.858;38.372;2022-12-07T04:17:02;-0.07;88.07
64918;HTU21D;52176;44.858;38.372;2022-12-07T04:19:29;-0.08;87.99
64918;HTU21D;52176;44.858;38.372;2022-12-07T04:21:55;-0.08;88.18
64918;HTU21D;52176;44.858;38.372;2022-12-07T04:24:21;-0.08;88.33
64918;HTU21D;52176;44.858;38.372;2022-12-07T04:26:48;-0.09;88.18
64918;HTU21D;52176;44.858;38.372;2022-12-07T04:29:14;-0.08;88.31
64918;HTU21D;52176;44.858;38.372;2022-12-07T04:31:40;-0.08;88.28
64918;HTU21D;52176;44.858;38.372;2022-12-07T04:34:06;-0.08;88.54
64918;HTU21D;52176;44.858;38.372;2022-12-07T04:36:32;-0.07;88.41
64918;HTU21D;52176;44.858;38.372;2022-12-07T04:38:58;-0.06;88.51
64918;HTU21D;52176;44.858;38.372;2022-12-07T04:41:24;-0.07;88.33
64918;HTU21D;52176;44.858;38.372;2022-12-07T04:43:57;-0.06;88.31
64918;HTU21D;52176;44.858;38.372;2022-12-07T04:46:23;-0.06;88.31
64918;HTU21D;52176;44.858;38.372;2022-12-07T04:48:49;-0.05;88.25
64918;HTU21D;52176;44.858;38.372;2022-12-07T04:51:17;-0.05;88.28
64918;HTU21D;52176;44.858;38.372;2022-12-07T04:53:43;-0.03;88.38
64918;HTU21D;52176;44.858;38.372;2022-12-07T04:56:10;-0.05;88.28
64918;HTU21D;52176;44.858;38.372;2022-12-07T04:58:35;-0.02;88.18
64918;HTU21D;52176;44.858;38.372;2022-12-07T05:01:01;-0.01;88.28
64918;HTU21D;52176;44.858;38.372;2022-12-07T05:03:27;-0.01;88.31
64918;HTU21D;52176;44.858;38.372;2022-12-07T05:05:53;0.01;88.31
64918;HTU21D;52176;44.858;38.372;2022-12-07T05:08:19;0.02;88.12
64918;HTU21D;52176;44.858;38.372;2022-12-07T05:10:44;0.04;87.99
64918;HTU21D;52176;44.858;38.372;2022-12-07T05:13:10;0.05;88.03
64918;HTU21D;52176;44.858;38.372;2022-12-07T05:15:36;0.07;88.08
64918;HTU21D;52176;44.858;38.372;2022-12-07T05:18:02;0.09;87.99
64918;HTU21D;52176;44.858;38.372;2022-12-07T05:20:28;0.12;87.96
64918;HTU21D;52176;44.858;38.372;2022-12-07T05:22:54;0.14;87.91
64918;HTU21D;52176;44.858;38.372;2022-12-07T05:25:20;0.15;87.97
64918;HTU21D;52176;44.858;38.372;2022-12-07T05:27:46;0.17;88.04
64918;HTU21D;52176;44.858;38.372;2022-12-07T05:30:12;0.19;87.90
64918;HTU21D;52176;44.858;38.372;2022-12-07T05:32:38;0.21;88.10
64918;HTU21D;52176;44.858;38.372;2022-12-07T05:35:04;0.22;88.09
64918;HTU21D;52176;44.858;38.372;2022-12-07T05:37:30;0.24;88.02
64918;HTU21D;52176;44.858;38.372;2022-12-07T05:39:57;0.24;88.26
64918;HTU21D;52176;44.858;38.372;2022-12-07T05:42:23;0.24;88.11
64918;HTU21D;52176;44.858;38.372;2022-12-07T05:44:49;0.27;88.02
64918;HTU21D;52176;44.858;38.372;2022-12-07T05:47:15;0.30;88.14
64918;HTU21D;52176;44.858;38.372;2022-12-07T05:49:41;0.32;88.27
64918;HTU21D;52176;44.858;38.372;2022-12-07T05:52:07;0.32;88.22
64918;HTU21D;52176;44.858;38.372;2022-12-07T05:54:33;0.33;88.23
64918;HTU21D;52176;44.858;38.372;2022-12-07T05:56:59;0.34;88.35
64918;HTU21D;52176;44.858;38.372;2022-12-07T05:59:25;0.33;88.25
64918;HTU21D;52176;44.858;38.372;2022-12-07T06:02:00;0.34;88.15
64918;HTU21D;52176;44.858;38.372;2022-12-07T06:04:26;0.35;88.12
64918;HTU21D;52176;44.858;38.372;2022-12-07T06:06:52;0.38;88.12
64918;HTU21D;52176;44.858;38.372;2022-12-07T06:09:19;0.40;88.01
64918;HTU21D;52176;44.858;38.372;2022-12-07T06:11:45;0.44;88.01
64918;HTU21D;52176;44.858;38.372;2022-12-07T06:14:29;0.46;87.89
64918;HTU21D;52176;44.858;38.372;2022-12-07T06:16:55;0.49;87.83
64918;HTU21D;52176;44.858;38.372;2022-12-07T06:19:21;0.52;87.74
64918;HTU21D;52176;44.858;38.372;2022-12-07T06:21:46;0.57;87.70
64918;HTU21D;52176;44.858;38.372;2022-12-07T06:24:13;0.60;87.67
64918;HTU21D;52176;44.858;38.372;2022-12-07T06:26:39;0.65;87.72
64918;HTU21D;52176;44.858;38.372;2022-12-07T06:29:05;0.66;87.52
64918;HTU21D;52176;44.858;38.372;2022-12-07T06:31:31;0.68;87.62
64918;HTU21D;52176;44.858;38.372;2022-12-07T06:33:58;0.72;87.55
64918;HTU21D;52176;44.858;38.372;2022-12-07T06:36:24;0.76;87.60
64918;HTU21D;52176;44.858;38.372;2022-12-07T06:38:49;0.80;87.57
64918;HTU21D;52176;44.858;38.372;2022-12-07T06:41:15;0.83;87.50
64918;HTU21D;52176;44.858;38.372;2022-12-07T06:43:41;0.86;87.48
64918;HTU21D;52176;44.858;38.372;2022-12-07T06:46:07;0.87;87.47
64918;HTU21D;52176;44.858;38.372;2022-12-07T06:48:33;0.84;87.45
64918;HTU21D;52176;44.858;38.372;2022-12-07T06:50:59;0.82;87.44
64918;HTU21D;52176;44.858;38.372;2022-12-07T06:53:25;0.82;87.54
64918;HTU21D;52176;44.858;38.372;2022-12-07T06:55:51;0.82;87.52
64918;HTU21D;52176;44.858;38.372;2022-12-07T06:58:17;0.87;87.55
64918;HTU21D;52176;44.858;38.372;2022-12-07T07:00:43;0.93;87.58
64918;HTU21D;52176;44.858;38.372;2022-12-07T07:03:09;1.01;87.50
64918;HTU21D;52176;44.858;38.372;2022-12-07T07:05:35;1.09;87.44
64918;HTU21D;52176;44.858;38.372;2022-12-07T07:08:01;1.18;87.38
64918;HTU21D;52176;44.858;38.372;2022-12-07T07:10:28;1.22;87.25
64918;HTU21D;52176;44.858;38.372;2022-12-07T07:12:54;1.26;87.18
64918;HTU21D;52176;44.858;38.372;2022-12-07T07:15:19;1.40;87.38
64918;HTU21D;52176;44.858;38.372;2022-12-07T07:21:01;2.22;86.72
64918;HTU21D;52176;44.858;38.372;2022-12-07T07:23:45;2.55;86.21
64918;HTU21D;52176;44.858;38.372;2022-12-07T07:26:11;2.69;86.01
64918;HTU21D;52176;44.858;38.372;2022-12-07T07:28:37;2.76;85.96
64918;HTU21D;52176;44.858;38.372;2022-12-07T07:31:03;2.84;85.85
64918;HTU21D;52176;44.858;38.372;2022-12-07T07:33:29;2.99;85.90
64918;HTU21D;52176;44.858;38.372;2022-12-07T07:35:55;3.13;85.61
64918;HTU21D;52176;44.858;38.372;2022-12-07T07:38:20;3.30;85.44
64918;HTU21D;52176;44.858;38.372;2022-12-07T07:40:46;3.44;85.27
64918;HTU21D;52176;44.858;38.372;2022-12-07T07:43:12;3.53;85.09
64918;HTU21D;52176;44.858;38.372;2022-12-07T07:45:38;3.53;84.99
64918;HTU21D;52176;44.858;38.372;2022-12-07T07:48:04;3.54;85.16
64918;HTU21D;52176;44.858;38.372;2022-12-07T07:50:30;3.63;85.20
64918;HTU21D;52176;44.858;38.372;2022-12-07T07:52:56;3.78;85.08
64918;HTU21D;52176;44.858;38.372;2022-12-07T07:55:22;3.86;84.91
64918;HTU21D;52176;44.858;38.372;2022-12-07T07:57:48;3.97;84.87
64918;HTU21D;52176;44.858;38.372;2022-12-07T08:00:14;4.01;84.79
64918;HTU21D;52176;44.858;38.372;2022-12-07T08:02:41;4.08;84.72
64918;HTU21D;52176;44.858;38.372;2022-12-07T08:05:08;4.22;84.74
64918;HTU21D;52176;44.858;38.372;2022-12-07T08:07:34;4.49;84.55
64918;HTU21D;52176;44.858;38.372;2022-12-07T08:09:59;4.73;84.11
64918;HTU21D;52176;44.858;38.372;2022-12-07T08:12:25;4.78;83.64
64918;HTU21D;52176;44.858;38.372;2022-12-07T08:14:51;4.84;83.83
64918;HTU21D;52176;44.858;38.372;2022-12-07T08:17:17;5.09;83.63
64918;HTU21D;52176;44.858;38.372;2022-12-07T08:19:42;5.50;83.42
64918;HTU21D;52176;44.858;38.372;2022-12-07T08:22:08;5.84;82.93
64918;HTU21D;52176;44.858;38.372;2022-12-07T08:24:35;6.20;82.49
64918;HTU21D;52176;44.858;38.372;2022-12-07T08:27:00;6.52;82.09
64918;HTU21D;52176;44.858;38.372;2022-12-07T08:29:26;6.69;81.73
64918;HTU21D;52176;44.858;38.372;2022-12-07T08:31:52;6.83;81.52
64918;HTU21D;52176;44.858;38.372;2022-12-07T08:34:18;6.86;81.49
64918;HTU21D;52176;44.858;38.372;2022-12-07T08:36:44;6.84;81.27
64918;HTU21D;52176;44.858;38.372;2022-12-07T08:39:09;6.81;81.15
64918;HTU21D;52176;44.858;38.372;2022-12-07T08:41:35;6.81;81.17
64918;HTU21D;52176;44.858;38.372;2022-12-07T08:44:01;6.82;80.77
64918;HTU21D;52176;44.858;38.372;2022-12-07T08:49:04;6.79;80.78
64918;HTU21D;52176;44.858;38.372;2022-12-07T08:51:31;6.73;80.78
64918;HTU21D;52176;44.858;38.372;2022-12-07T08:53:57;6.67;80.94
64918;HTU21D;52176;44.858;38.372;2022-12-07T08:56:23;6.56;79.78
64918;HTU21D;52176;44.858;38.372;2022-12-07T08:58:49;6.45;81.24
64918;HTU21D;52176;44.858;38.372;2022-12-07T09:01:15;6.43;81.32
64918;HTU21D;52176;44.858;38.372;2022-12-07T09:03:41;6.37;81.33
64918;HTU21D;52176;44.858;38.372;2022-12-07T09:06:07;6.33;81.45
64918;HTU21D;52176;44.858;38.372;2022-12-07T09:08:34;6.23;81.38
64918;HTU21D;52176;44.858;38.372;2022-12-07T09:11:02;6.22;81.88
64918;HTU21D;52176;44.858;38.372;2022-12-07T09:13:28;6.30;81.59
64918;HTU21D;52176;44.858;38.372;2022-12-07T09:15:54;6.31;81.71
64918;HTU21D;52176;44.858;38.372;2022-12-07T09:18:19;6.37;81.62
64918;HTU21D;52176;44.858;38.372;2022-12-07T09:20:45;6.43;81.80
64918;HTU21D;52176;44.858;38.372;2022-12-07T09:23:11;6.41;81.67
64918;HTU21D;52176;44.858;38.372;2022-12-07T09:25:37;6.39;81.92
64918;HTU21D;52176;44.858;38.372;2022-12-07T09:28:03;6.38;81.89
64918;HTU21D;52176;44.858;38.372;2022-12-07T09:30:29;6.34;81.91
64918;HTU21D;52176;44.858;38.372;2022-12-07T09:32:55;6.35;82.04
64918;HTU21D;52176;44.858;38.372;2022-12-07T09:35:22;6.36;82.12
64918;HTU21D;52176;44.858;38.372;2022-12-07T09:37:48;6.41;82.07
64918;HTU21D;52176;44.858;38.372;2022-12-07T09:40:14;6.45;81.92
64918;HTU21D;52176;44.858;38.372;2022-12-07T09:42:43;6.48;82.17
64918;HTU21D;52176;44.858;38.372;2022-12-07T09:45:15;6.54;82.22
64918;HTU21D;52176;44.858;38.372;2022-12-07T09:47:42;6.60;82.14
64918;HTU21D;52176;44.858;38.372;2022-12-07T09:50:15;6.67;82.23
64918;HTU21D;52176;44.858;38.372;2022-12-07T09:52:42;6.76;82.11
64918;HTU21D;52176;44.858;38.372;2022-12-07T09:55:11;6.76;81.44
64918;HTU21D;52176;44.858;38.372;2022-12-07T09:57:37;6.65;80.46
64918;HTU21D;52176;44.858;38.372;2022-12-07T10:00:05;6.51;80.85
64918;HTU21D;52176;44.858;38.372;2022-12-07T10:02:37;6.39;81.20
64918;HTU21D;52176;44.858;38.372;2022-12-07T10:05:04;6.40;81.38
64918;HTU21D;52176;44.858;38.372;2022-12-07T10:07:30;6.42;81.01
64918;HTU21D;52176;44.858;38.372;2022-12-07T10:09:56;6.42;81.46
64918;HTU21D;52176;44.858;38.372;2022-12-07T10:12:22;6.49;81.53
64918;HTU21D;52176;44.858;38.372;2022-12-07T10:14:56;6.49;81.40
64918;HTU21D;52176;44.858;38.372;2022-12-07T10:17:26;6.48;81.52
64918;HTU21D;52176;44.858;38.372;2022-12-07T10:20:08;6.44;81.45
64918;HTU21D;52176;44.858;38.372;2022-12-07T10:22:34;6.42;81.43
64918;HTU21D;52176;44.858;38.372;2022-12-07T10:25:07;6.40;81.49
64918;HTU21D;52176;44.858;38.372;2022-12-07T10:27:33;6.41;81.67
64918;HTU21D;52176;44.858;38.372;2022-12-07T10:29:59;6.44;81.58
64918;HTU21D;52176;44.858;38.372;2022-12-07T10:32:30;6.43;81.41
64918;HTU21D;52176;44.858;38.372;2022-12-07T10:37:41;6.43;81.38
64918;HTU21D;52176;44.858;38.372;2022-12-07T10:40:23;6.49;81.54
64918;HTU21D;52176;44.858;38.372;2022-12-07T10:43:00;6.59;81.62
64918;HTU21D;52176;44.858;38.372;2022-12-07T10:45:25;6.68;81.54
64918;HTU21D;52176;44.858;38.372;2022-12-07T10:47:54;6.79;81.49
64918;HTU21D;52176;44.858;38.372;2022-12-07T10:55:53;6.96;81.10
64918;HTU21D;52176;44.858;38.372;2022-12-07T10:58:31;7.01;80.75
64918;HTU21D;52176;44.858;38.372;2022-12-07T11:01:22;6.96;80.57
64918;HTU21D;52176;44.858;38.372;2022-12-07T11:03:54;6.89;80.50
64918;HTU21D;52176;44.858;38.372;2022-12-07T11:08:56;6.82;80.56
64918;HTU21D;52176;44.858;38.372;2022-12-07T11:11:35;6.79;80.36
64918;HTU21D;52176;44.858;38.372;2022-12-07T11:14:03;6.74;80.69
64918;HTU21D;52176;44.858;38.372;2022-12-07T11:36:31;6.64;80.61
64918;HTU21D;52176;44.858;38.372;2022-12-07T11:39:00;6.54;80.51
64918;HTU21D;52176;44.858;38.372;2022-12-07T11:41:28;6.46;80.86
64918;HTU21D;52176;44.858;38.372;2022-12-07T11:46:40;6.44;80.98
64918;HTU21D;52176;44.858;38.372;2022-12-07T11:49:13;6.43;80.84
64918;HTU21D;52176;44.858;38.372;2022-12-07T11:51:40;6.40;80.65
64918;HTU21D;52176;44.858;38.372;2022-12-07T11:54:12;6.36;80.96
64918;HTU21D;52176;44.858;38.372;2022-12-07T11:56:39;6.30;81.03
64918;HTU21D;52176;44.858;38.372;2022-12-07T12:06:29;5.97;81.35
64918;HTU21D;52176;44.858;38.372;2022-12-07T12:22:17;5.54;81.82
64918;HTU21D;52176;44.858;38.372;2022-12-07T12:24:44;5.50;81.88
64918;HTU21D;52176;44.858;38.372;2022-12-07T12:27:18;5.45;81.90
64918;HTU21D;52176;44.858;38.372;2022-12-07T12:29:50;5.38;81.99
64918;HTU21D;52176;44.858;38.372;2022-12-07T12:32:18;5.35;82.04
64918;HTU21D;52176;44.858;38.372;2022-12-07T12:42:46;5.28;82.16
64918;HTU21D;52176;44.858;38.372;2022-12-07T12:45:22;5.28;82.17
64918;HTU21D;52176;44.858;38.372;2022-12-07T12:50:26;5.30;82.15
64918;HTU21D;52176;44.858;38.372;2022-12-07T12:55:18;5.33;82.13
64918;HTU21D;52176;44.858;38.372;2022-12-07T12:57:47;5.31;82.09
64918;HTU21D;52176;44.858;38.372;2022-12-07T13:00:32;5.31;82.10
64918;HTU21D;52176;44.858;38.372;2022-12-07T13:02:58;5.28;82.13
64918;HTU21D;52176;44.858;38.372;2022-12-07T13:05:25;5.25;82.12
64918;HTU21D;52176;44.858;38.372;2022-12-07T13:08:00;5.18;82.13
64918;HTU21D;52176;44.858;38.372;2022-12-07T13:15:39;4.94;82.26
64918;HTU21D;52176;44.858;38.372;2022-12-07T13:20:50;4.74;82.38
64918;HTU21D;52176;44.858;38.372;2022-12-07T13:23:18;4.67;82.46
64918;HTU21D;52176;44.858;38.372;2022-12-07T13:25:49;4.61;82.52
64918;HTU21D;52176;44.858;38.372;2022-12-07T13:28:17;4.53;82.58
64918;HTU21D;52176;44.858;38.372;2022-12-07T13:31:01;4.48;82.66
64918;HTU21D;52176;44.858;38.372;2022-12-07T13:33:30;4.42;82.74
64918;HTU21D;52176;44.858;38.372;2022-12-07T13:35:56;4.35;82.78
64918;HTU21D;52176;44.858;38.372;2022-12-07T13:38:29;4.31;82.86
64918;HTU21D;52176;44.858;38.372;2022-12-07T13:41:02;4.26;82.87
64918;HTU21D;52176;44.858;38.372;2022-12-07T13:43:28;4.21;82.95
64918;HTU21D;52176;44.858;38.372;2022-12-07T13:45:57;4.17;83.00
64918;HTU21D;52176;44.858;38.372;2022-12-07T13:48:42;4.12;83.04
64918;HTU21D;52176;44.858;38.372;2022-12-07T13:51:14;4.08;83.05
64918;HTU21D;52176;44.858;38.372;2022-12-07T13:53:46;4.03;83.07
64918;HTU21D;52176;44.858;38.372;2022-12-07T13:56:12;3.98;83.10
64918;HTU21D;52176;44.858;38.372;2022-12-07T13:58:38;3.94;83.16
64918;HTU21D;52176;44.858;38.372;2022-12-07T14:01:04;3.90;83.16
64918;HTU21D;52176;44.858;38.372;2022-12-07T14:03:32;3.86;83.20
64918;HTU21D;52176;44.858;38.372;2022-12-07T14:08:43;3.79;83.27
64918;HTU21D;52176;44.858;38.372;2022-12-07T14:11:18;3.76;83.28
64918;HTU21D;52176;44.858;38.372;2022-12-07T14:18:56;3.69;83.34
64918;HTU21D;52176;44.858;38.372;2022-12-07T14:21:26;3.65;83.35
64918;HTU21D;52176;44.858;38.372;2022-12-07T14:26:37;3.63;83.35
64918;HTU21D;52176;44.858;38.372;2022-12-07T14:29:19;3.62;83.32
64918;HTU21D;52176;44.858;38.372;2022-12-07T14:31:45;3.60;83.32
64918;HTU21D;52176;44.858;38.372;2022-12-07T14:34:14;3.58;83.30
64918;HTU21D;52176;44.858;38.372;2022-12-07T14:36:39;3.58;83.29
64918;HTU21D;52176;44.858;38.372;2022-12-07T14:39:05;3.57;83.27
64918;HTU21D;52176;44.858;38.372;2022-12-07T14:41:31;3.55;83.26
64918;HTU21D;52176;44.858;38.372;2022-12-07T14:44:15;3.55;83.29
64918;HTU21D;52176;44.858;38.372;2022-12-07T14:46:41;3.54;83.32
64918;HTU21D;52176;44.858;38.372;2022-12-07T14:49:06;3.54;83.29
64918;HTU21D;52176;44.858;38.372;2022-12-07T14:51:33;3.52;83.28
64918;HTU21D;52176;44.858;38.372;2022-12-07T14:54:00;3.52;83.28
64918;HTU21D;52176;44.858;38.372;2022-12-07T14:56:26;3.52;83.32
64918;HTU21D;52176;44.858;38.372;2022-12-07T14:58:53;3.50;83.32
64918;HTU21D;52176;44.858;38.372;2022-12-07T15:01:19;3.48;83.31
64918;HTU21D;52176;44.858;38.372;2022-12-07T15:03:45;3.47;83.34
64918;HTU21D;52176;44.858;38.372;2022-12-07T15:06:13;3.46;83.35
64918;HTU21D;52176;44.858;38.372;2022-12-07T15:08:39;3.44;83.36
64918;HTU21D;52176;44.858;38.372;2022-12-07T15:11:05;3.41;83.39
64918;HTU21D;52176;44.858;38.372;2022-12-07T15:13:31;3.41;83.40
64918;HTU21D;52176;44.858;38.372;2022-12-07T15:16:16;3.40;83.46
64918;HTU21D;52176;44.858;38.372;2022-12-07T15:18:44;3.39;83.41
64918;HTU21D;52176;44.858;38.372;2022-12-07T15:21:13;3.38;83.53
64918;HTU21D;52176;44.858;38.372;2022-12-07T15:23:40;3.34;83.49
64918;HTU21D;52176;44.858;38.372;2022-12-07T15:26:05;3.32;83.55
64918;HTU21D;52176;44.858;38.372;2022-12-07T15:28:33;3.31;83.63
64918;HTU21D;52176;44.858;38.372;2022-12-07T15:30:59;3.27;83.70
64918;HTU21D;52176;44.858;38.372;2022-12-07T15:33:25;3.26;83.67
64918;HTU21D;52176;44.858;38.372;2022-12-07T15:35:50;3.21;83.81
64918;HTU21D;52176;44.858;38.372;2022-12-07T15:38:16;3.20;83.79
64918;HTU21D;52176;44.858;38.372;2022-12-07T15:40:42;3.18;83.78
64918;HTU21D;52176;44.858;38.372;2022-12-07T15:43:08;3.16;83.87
64918;HTU21D;52176;44.858;38.372;2022-12-07T15:45:56;3.14;83.86
64918;HTU21D;52176;44.858;38.372;2022-12-07T15:48:21;3.12;83.85
64918;HTU21D;52176;44.858;38.372;2022-12-07T15:50:47;3.12;83.90
64918;HTU21D;52176;44.858;38.372;2022-12-07T15:53:13;3.10;84.00
64918;HTU21D;52176;44.858;38.372;2022-12-07T15:55:39;3.10;83.93
64918;HTU21D;52176;44.858;38.372;2022-12-07T15:58:06;3.09;83.86
64918;HTU21D;52176;44.858;38.372;2022-12-07T16:00:32;3.08;83.82
64918;HTU21D;52176;44.858;38.372;2022-12-07T16:02:58;3.06;83.79
64918;HTU21D;52176;44.858;38.372;2022-12-07T16:05:24;3.05;83.78
64918;HTU21D;52176;44.858;38.372;2022-12-07T16:07:49;3.04;83.76
64918;HTU21D;52176;44.858;38.372;2022-12-07T16:10:15;3.04;83.76
64918;HTU21D;52176;44.858;38.372;2022-12-07T16:12:41;3.03;83.84
64918;HTU21D;52176;44.858;38.372;2022-12-07T16:15:09;3.03;83.80
64918;HTU21D;52176;44.858;38.372;2022-12-07T16:17:35;3.03;83.79
64918;HTU21D;52176;44.858;38.372;2022-12-07T16:20:01;3.03;83.74
64918;HTU21D;52176;44.858;38.372;2022-12-07T16:22:26;3.03;83.84
64918;HTU21D;52176;44.858;38.372;2022-12-07T16:24:52;3.04;83.84
64918;HTU21D;52176;44.858;38.372;2022-12-07T16:27:18;3.03;83.83
64918;HTU21D;52176;44.858;38.372;2022-12-07T16:29:44;3.02;83.82
64918;HTU21D;52176;44.858;38.372;2022-12-07T16:32:10;3.02;83.84
64918;HTU21D;52176;44.858;38.372;2022-12-07T16:34:36;3.02;83.80
64918;HTU21D;52176;44.858;38.372;2022-12-07T16:37:02;3.01;83.80
64918;HTU21D;52176;44.858;38.372;2022-12-07T16:39:27;3.01;83.78
64918;HTU21D;52176;44.858;38.372;2022-12-07T16:41:53;3.00;83.78
64918;HTU21D;52176;44.858;38.372;2022-12-07T16:44:19;2.99;83.81
64918;HTU21D;52176;44.858;38.372;2022-12-07T16:46:45;2.99;83.86
64918;HTU21D;52176;44.858;38.372;2022-12-07T16:49:14;2.99;83.90
64918;HTU21D;52176;44.858;38.372;2022-12-07T16:51:40;2.97;83.92
64918;HTU21D;52176;44.858;38.372;2022-12-07T16:54:09;2.97;84.01
64918;HTU21D;52176;44.858;38.372;2022-12-07T16:56:35;2.95;84.03
64918;HTU21D;52176;44.858;38.372;2022-12-07T16:59:01;2.94;84.04
64918;HTU21D;52176;44.858;38.372;2022-12-07T17:01:29;2.93;84.03
64918;HTU21D;52176;44.858;38.372;2022-12-07T17:03:56;2.91;84.12
64918;HTU21D;52176;44.858;38.372;2022-12-07T17:06:24;2.90;84.10
64918;HTU21D;52176;44.858;38.372;2022-12-07T17:08:51;2.91;84.11
64918;HTU21D;52176;44.858;38.372;2022-12-07T17:11:18;2.90;84.05
64918;HTU21D;52176;44.858;38.372;2022-12-07T17:13:44;2.89;84.03
64918;HTU21D;52176;44.858;38.372;2022-12-07T17:16:29;2.88;84.06
64918;HTU21D;52176;44.858;38.372;2022-12-07T17:18:56;2.89;84.06
64918;HTU21D;52176;44.858;38.372;2022-12-07T17:21:23;2.88;84.00
64918;HTU21D;52176;44.858;38.372;2022-12-07T17:23:49;2.90;84.00
64918;HTU21D;52176;44.858;38.372;2022-12-07T17:26:16;2.89;83.99
64918;HTU21D;52176;44.858;38.372;2022-12-07T17:28:42;2.89;83.96